Portada
METAR-TAF:

METAR-TAF

Aeroports :

Recife, Pernambuco, Brasil

latitud: 08-08S, longitud: 034-55W, altitud: 19 m

Observació

L'informe es va fer fa 45 minuts, a les 22:00 UTC
Vent 6 kt del Sud/Sud-Est
Temperatura 25°C
Humitat 89%
Pressió 1015 hPa
Visibilitat: 8000 m
Escasses núvols a una alçada de 1800 ft
Cel ennuvolat a una alçada de 5000 ft
pluja

METAR: SBRF 232200Z 15006KT 8000 -RA FEW018 BKN050 25/23 Q1015

Hora: 19:45 (22:45 UTC)

Pronòstic

L'informe es va fer fa 6 hores i 45 minuts, a les 16:00 UTC
Pronòstic vàlid del 23 a les 18 UTC al 24 a les 18 UTC
Vent 5 kt del Sud-Est
Visibilitat: 8000 m
Núvols disperses a una alçada de 2300 ft
Evolucionant progressivament
l' 24 a les 10 UTC al 24 a les 12 UTC
Vent 12 kt del Sud-Est

TAF: SBRF 231600Z 2318/2418 13005KT 8000 SCT023 TN25/2407Z TX30/2415Z BECMG 2410/2412 13012KT RMK PBO

Observacions i pronòstics meteorològics de més de 4000 aeroports (METAR i TAF).

Les estacions disponibles són els punts grocs i vermells al mapa.

Posi el ratolí al punt desitjat per veure el nom de l'estació.

Feu clic per veure les observacions i els pronòstics meteorològics.

Per canviar el mapa: feu clic els botons verds amb una creu de color negre per apropar; al botó verd amb un guió per allunyar la imatge; o en les fletxes verdes per a mapes adjacents.


METAR-TAF: